Airfield :
LOGIN :

Register | Disclaimer

   EN    FR    IT 

 










Legend :    VFR   Marginal VFR   IFR   Intensive IFR   Very Intensive IFR
Visi :
Ceiling :
>= 8 km
>= 3000ft
5 to 8 km
1000 to 3000 ft
1500m to 5 km
500 to 1000 ft
800 to 1500m
200 to 500 ft
< 800m
< 200 ft
Symbols :   Thunderstorms  Fog  Heavy snow  Heavy precipitations  Wind > 20 kt
SIGMETs :     Misc.  Thunderstorms  Icing  Turbulence  Mountain Waves  Volcanic Ashes







- Airport Elevation : 375 ft
- IATA code : MST


EHBK - Maastricht Aachen

CURRENT METAR :
  • 201655Z AUTO 10010KT 060V130 9999 OVC026 04/M01 Q1006 NOSIG

EXPIRED METARs :
  • 201625Z AUTO 10011KT 060V140 9999 OVC025 04/M01 Q1006 NOSIG
  • 201555Z AUTO 09009KT 060V130 9999 OVC025 04/M01 Q1006 NOSIG
  • 201525Z AUTO 09010KT 050V140 9999 OVC026 04/M01 Q1006 NOSIG
  • 201455Z AUTO 09011KT 030V130 9999 BKN027 OVC031 04/M01 Q1006 NOSIG
  • 201425Z AUTO 09013KT 050V120 9999 OVC028 04/M01 Q1006 NOSIG

TAF COR TAF EHBK
Valid from the 20 at 12:00 until the 21 at 18:00 UTC


201132Z 2012/2118 09015G25KT 9999 BKN035
BECMG 2015/2018 09013KT
BECMG 2109/2112 06005KT
No reported NOTAMs for that airfield.



MET'MAP, your aeronautical weather chart ! - Copyright ORBIFLY December 2007 - Disclaimer

ORBIFLY MET'MAP TEAM :

Programming & Development : Alexandra Zaïnal
Concept & Development : Baudouin d'Aumeries
Co-Development & Prog : Marc-Olivier Méhu
Technical & hardware support : Manuel Goepfert

Contact : metmap@orbifly.com




SOURCES & CREDITS :

   NOAA